createdAt,value
2019-05-12T00:02:05.085Z,102799.36
2019-05-12T00:04:38.592Z,102801.53
2019-05-12T00:07:11.914Z,102794.11
2019-05-12T00:09:47.435Z,102794.85
2019-05-12T00:12:20.585Z,102799.05
2019-05-12T00:14:53.954Z,102799.36
2019-05-12T00:17:28.412Z,102804.54
2019-05-12T00:20:01.959Z,102806.64
2019-05-12T00:22:36.152Z,102802.71
2019-05-12T00:25:12.131Z,102802.23
2019-05-12T00:27:45.472Z,102802.65
2019-05-12T00:30:18.851Z,102807.41
2019-05-12T00:32:52.229Z,102812.10
2019-05-12T00:35:25.831Z,102817.27
2019-05-12T00:38:00.835Z,102811.49
2019-05-12T00:40:38.831Z,102811.49
2019-05-12T00:43:11.250Z,102816.91
2019-05-12T00:45:44.580Z,102819.46
2019-05-12T00:48:18.066Z,102823.31
2019-05-12T00:50:51.562Z,102823.69
2019-05-12T00:53:36.149Z,102828.52
2019-05-12T00:56:01.642Z,102828.39
2019-05-12T00:58:34.949Z,102835.33
2019-05-12T01:01:08.330Z,102830.09
2019-05-12T01:03:41.612Z,102830.55
2019-05-12T01:06:14.953Z,102838.36
2019-05-12T01:08:48.429Z,102834.42
2019-05-12T01:11:21.865Z,102843.48
2019-05-12T01:13:55.180Z,102837.48
2019-05-12T01:16:29.013Z,102843.87
2019-05-12T01:19:02.418Z,102844.28
2019-05-12T01:21:37.664Z,102848.61
2019-05-12T01:24:10.758Z,102854.66
2019-05-12T01:26:44.309Z,102855.91
2019-05-12T01:29:19.266Z,102861.88
2019-05-12T01:31:52.582Z,102861.05
2019-05-12T01:34:27.723Z,102867.77
2019-05-12T01:37:00.930Z,102872.00
2019-05-12T01:39:34.236Z,102874.06
2019-05-12T01:42:09.104Z,102882.63
2019-05-12T01:44:42.464Z,102878.36
2019-05-12T01:47:18.575Z,102884.75
2019-05-12T01:49:51.230Z,102881.47
2019-05-12T01:52:24.560Z,102879.12
2019-05-12T01:54:59.007Z,102885.09
2019-05-12T01:57:32.588Z,102890.75
2019-05-12T02:00:10.116Z,102894.11
2019-05-12T02:02:43.459Z,102902.09
2019-05-12T02:05:18.348Z,102908.50
2019-05-12T02:07:51.897Z,102904.73
2019-05-12T02:10:28.579Z,102911.58
2019-05-12T02:13:01.853Z,102915.14
2019-05-12T02:15:38.381Z,102917.72
2019-05-12T02:18:11.274Z,102925.61
2019-05-12T02:20:44.816Z,102935.45
2019-05-12T02:23:18.139Z,102937.56
2019-05-12T02:25:51.509Z,102936.66
2019-05-12T02:28:24.858Z,102939.14
2019-05-12T02:30:59.105Z,102938.66
2019-05-12T02:33:35.603Z,102958.53
2019-05-12T02:36:09.022Z,102952.42
2019-05-12T02:38:45.083Z,102955.45
2019-05-12T02:41:17.360Z,102965.82
2019-05-12T02:43:50.687Z,102962.67
2019-05-12T02:46:25.503Z,102963.52
2019-05-12T02:48:59.319Z,102966.06
2019-05-12T02:51:35.155Z,102968.63
2019-05-12T02:54:07.678Z,102978.37
2019-05-12T02:56:40.989Z,102974.22
2019-05-12T02:59:16.244Z,102974.77
2019-05-12T03:01:49.550Z,102981.08
2019-05-12T03:04:24.980Z,102992.22
2019-05-12T03:07:02.312Z,102989.37
2019-05-12T03:09:35.328Z,102994.82
2019-05-12T03:12:08.814Z,102996.72
2019-05-12T03:14:44.793Z,103005.75
2019-05-12T03:17:17.156Z,103006.14
2019-05-12T03:19:50.488Z,103014.33
2019-05-12T03:22:25.233Z,103013.00
2019-05-12T03:25:11.324Z,103018.59
2019-05-12T03:27:35.048Z,103023.33
2019-05-12T03:30:11.828Z,103021.52
2019-05-12T03:32:47.252Z,103029.90
2019-05-12T03:35:20.307Z,103032.20
2019-05-12T03:37:54.786Z,103037.23
2019-05-12T03:40:28.167Z,103041.30
2019-05-12T03:43:01.465Z,103039.34
2019-05-12T03:45:36.154Z,103044.02
2019-05-12T03:48:10.725Z,103058.58
2019-05-12T03:50:46.017Z,103061.42
2019-05-12T03:53:19.325Z,103061.09
2019-05-12T03:55:55.293Z,103062.91
2019-05-12T03:58:27.675Z,103061.38
2019-05-12T04:01:04.371Z,103063.77
2019-05-12T04:03:36.013Z,103077.80
2019-05-12T04:06:09.347Z,103083.15
2019-05-12T04:08:45.658Z,103083.16
2019-05-12T04:11:17.674Z,103091.62
2019-05-12T04:13:51.032Z,103096.59
2019-05-12T04:16:24.895Z,103096.63
2019-05-12T04:18:58.336Z,103100.16
2019-05-12T04:21:34.697Z,103104.08
2019-05-12T04:24:06.987Z,103113.82
2019-05-12T04:26:40.256Z,103113.34
2019-05-12T04:29:15.520Z,103112.48
2019-05-12T04:31:48.600Z,103116.31
2019-05-12T04:34:24.861Z,103122.00
2019-05-12T04:36:57.000Z,103127.48
2019-05-12T04:39:34.153Z,103128.66
2019-05-12T04:42:07.034Z,103128.47
2019-05-12T04:44:40.346Z,103129.31
2019-05-12T04:47:14.584Z,103116.81
2019-05-12T04:49:48.183Z,103118.45
2019-05-12T04:52:24.645Z,103124.73
2019-05-12T04:54:56.537Z,103125.94
2019-05-12T04:57:29.908Z,103128.05
2019-05-12T05:00:07.231Z,103124.98
2019-05-12T05:02:45.243Z,103128.46
2019-05-12T05:05:17.269Z,103127.96
2019-05-12T05:07:50.639Z,103135.80
2019-05-12T05:10:24.967Z,103138.83
2019-05-12T05:12:59.525Z,103147.57
2019-05-12T05:15:34.739Z,103146.22
2019-05-12T05:18:07.866Z,103152.27
2019-05-12T05:20:43.664Z,103158.28
2019-05-12T05:23:16.249Z,103167.16
2019-05-12T05:25:49.563Z,103167.81
2019-05-12T05:28:23.668Z,103168.22
2019-05-12T05:30:57.089Z,103173.87
2019-05-12T05:33:30.422Z,103188.48
2019-05-12T05:36:03.710Z,103186.95
2019-05-12T05:38:37.061Z,103185.98
2019-05-12T05:41:10.690Z,103195.56
2019-05-12T05:43:48.620Z,103196.28
2019-05-12T05:46:19.263Z,103197.33
2019-05-12T05:48:54.222Z,103201.50
2019-05-12T05:51:28.140Z,103201.65
2019-05-12T05:54:04.037Z,103207.67
2019-05-12T05:56:42.720Z,103214.60
2019-05-12T05:59:14.955Z,103219.77
2019-05-12T06:01:51.913Z,103221.71
2019-05-12T06:04:23.775Z,103220.83
2019-05-12T06:06:57.422Z,103227.91
2019-05-12T06:09:30.738Z,103230.89
2019-05-12T06:12:09.656Z,103231.03
2019-05-12T06:14:40.931Z,103226.14
2019-05-12T06:17:14.659Z,103223.45
2019-05-12T06:19:48.043Z,103235.26
2019-05-12T06:22:23.380Z,103230.69
2019-05-12T06:24:58.885Z,103243.30
2019-05-12T06:27:33.639Z,103243.41
2019-05-12T06:30:08.666Z,103246.78
2019-05-12T06:32:50.205Z,103245.77
2019-05-12T06:35:17.009Z,103243.94
2019-05-12T06:38:00.103Z,103254.36
2019-05-12T06:40:25.357Z,103259.58
2019-05-12T06:42:58.635Z,103259.04
2019-05-12T06:45:36.534Z,103258.62
2019-05-12T06:48:07.603Z,103259.05
2019-05-12T06:50:43.593Z,103269.06
2019-05-12T06:53:20.256Z,103266.88
2019-05-12T06:55:53.875Z,103268.52
2019-05-12T06:58:31.371Z,103277.30
2019-05-12T07:01:09.834Z,103281.72
2019-05-12T07:03:37.418Z,103286.46
2019-05-12T07:06:17.943Z,103292.87
2019-05-12T07:08:46.083Z,103290.81
2019-05-12T07:11:19.418Z,103294.21
2019-05-12T07:14:02.123Z,103295.73
2019-05-12T07:16:30.289Z,103295.73
2019-05-12T07:19:07.833Z,103292.12
2019-05-12T07:21:38.341Z,103289.50
2019-05-12T07:24:11.756Z,103303.27
2019-05-12T07:26:47.926Z,103295.72
2019-05-12T07:29:20.258Z,103303.30
2019-05-12T07:31:53.816Z,103303.19
2019-05-12T07:34:28.342Z,103305.80
2019-05-12T07:37:04.226Z,103308.64
2019-05-12T07:39:44.852Z,103316.95
2019-05-12T07:42:13.388Z,103308.23
2019-05-12T07:44:47.006Z,103309.52
2019-05-12T07:47:27.338Z,103308.31
2019-05-12T07:49:56.734Z,103314.04
2019-05-12T07:52:30.039Z,103316.29
2019-05-12T07:55:05.040Z,103304.06
2019-05-12T07:57:52.069Z,103314.34
2019-05-12T08:00:21.214Z,103315.65
2019-05-12T08:02:48.456Z,103320.88
2019-05-12T08:05:23.903Z,103322.69
2019-05-12T08:08:00.629Z,103330.28
2019-05-12T08:10:34.021Z,103328.81
2019-05-12T08:13:07.056Z,103336.11
2019-05-12T08:15:45.730Z,103332.54
2019-05-12T08:18:15.437Z,103275.72
2019-05-12T08:20:48.761Z,103333.65
2019-05-12T08:23:23.475Z,103333.62
2019-05-12T08:25:57.005Z,103340.13
2019-05-12T08:28:35.874Z,103337.09
2019-05-12T08:31:05.348Z,103329.21
2019-05-12T08:33:38.655Z,103332.63
2019-05-12T08:36:16.063Z,103341.70
2019-05-12T08:38:47.027Z,103341.61
2019-05-12T08:41:20.343Z,103350.20
2019-05-12T08:43:58.229Z,103347.57
2019-05-12T08:46:28.735Z,103354.09
2019-05-12T08:49:03.010Z,103347.50
2019-05-12T08:51:37.079Z,103358.45
2019-05-12T08:54:10.355Z,103362.82
2019-05-12T08:56:43.732Z,103359.22
2019-05-12T08:59:18.454Z,103361.37
2019-05-12T09:01:54.082Z,103362.70
2019-05-12T09:04:27.068Z,103360.67
2019-05-12T09:07:00.404Z,103361.30
2019-05-12T09:09:33.797Z,103363.11
2019-05-12T09:12:07.152Z,103374.05
2019-05-12T09:14:46.313Z,103377.84
2019-05-12T09:17:16.807Z,103367.77
2019-05-12T09:19:55.026Z,103362.96
2019-05-12T09:22:25.151Z,103372.25
2019-05-12T09:25:03.553Z,103374.64
2019-05-12T09:27:39.476Z,103377.43
2019-05-12T09:30:09.962Z,103380.01
2019-05-12T09:32:48.211Z,103389.52
2019-05-12T09:35:18.447Z,103383.63
2019-05-12T09:37:53.535Z,103397.48
2019-05-12T09:40:27.066Z,103403.48
2019-05-12T09:43:06.256Z,103399.75
2019-05-12T09:45:40.156Z,103407.86
2019-05-12T09:48:10.584Z,103405.95
2019-05-12T09:50:46.340Z,103416.14
2019-05-12T09:53:19.086Z,103411.59
2019-05-12T09:55:53.951Z,103413.18
2019-05-12T09:58:27.978Z,103410.44
2019-05-12T10:01:03.627Z,103407.41
2019-05-12T10:03:40.037Z,103416.80
2019-05-12T10:06:18.001Z,103424.05
2019-05-12T10:08:47.222Z,103422.16
2019-05-12T10:11:20.977Z,103418.83
2019-05-12T10:13:54.479Z,103415.42
2019-05-12T10:16:27.815Z,103406.70
2019-05-12T10:19:03.760Z,103407.16
2019-05-12T10:21:36.210Z,103413.78
2019-05-12T10:24:10.479Z,103405.18
2019-05-12T10:26:48.906Z,103410.88
2019-05-12T10:29:20.832Z,103409.97
2019-05-12T10:31:53.809Z,103413.64
2019-05-12T10:34:29.376Z,103420.86
2019-05-12T10:37:04.132Z,103432.87
2019-05-12T10:39:37.539Z,103447.08
2019-05-12T10:42:10.889Z,103447.38
2019-05-12T10:44:44.200Z,103446.45
2019-05-12T10:47:17.552Z,103443.98
2019-05-12T10:49:50.905Z,103449.30
2019-05-12T10:52:24.464Z,103452.94
2019-05-12T10:54:57.941Z,103446.24
2019-05-12T10:57:33.270Z,103451.05
2019-05-12T11:00:08.083Z,103442.84
2019-05-12T11:02:41.414Z,103445.22
2019-05-12T11:05:21.128Z,103440.85
2019-05-12T11:07:49.790Z,103441.61
2019-05-12T11:10:23.356Z,103444.62
2019-05-12T11:12:59.136Z,103442.86
2019-05-12T11:15:34.403Z,103436.39
2019-05-12T11:20:40.645Z,103442.09
2019-05-12T11:23:14.360Z,103440.08
2019-05-12T11:25:47.828Z,103433.58
2019-05-12T11:28:21.178Z,103446.66
2019-05-12T11:30:54.864Z,103440.24
2019-05-12T11:33:28.190Z,103445.31
2019-05-12T11:36:01.656Z,103450.61
2019-05-12T11:38:35.055Z,103446.22
2019-05-12T11:41:10.099Z,103450.09
2019-05-12T11:43:43.901Z,103448.45
2019-05-12T11:46:17.422Z,103448.44
2019-05-12T11:48:50.776Z,103441.78
2019-05-12T11:51:26.948Z,103441.50
2019-05-12T11:54:03.642Z,103429.66
2019-05-12T11:56:34.425Z,103440.17
2019-05-12T11:59:08.516Z,103448.31
2019-05-12T12:01:47.486Z,103446.13
2019-05-12T12:04:16.918Z,103449.54
2019-05-12T12:06:51.344Z,103454.69
2019-05-12T12:09:24.633Z,103457.73
2019-05-12T12:12:03.201Z,103453.41
2019-05-12T12:14:34.488Z,103470.75
2019-05-12T12:17:08.213Z,103448.23
2019-05-12T12:19:46.400Z,103465.42
2019-05-12T12:22:20.324Z,103462.57
2019-05-12T12:24:53.767Z,103463.45
2019-05-12T12:27:26.656Z,103475.48
2019-05-12T12:30:13.691Z,103463.58
2019-05-12T12:32:34.999Z,103464.89
2019-05-12T12:35:11.885Z,103465.90
2019-05-12T12:37:44.951Z,103468.70
2019-05-12T12:40:18.337Z,103467.21
2019-05-12T12:42:53.710Z,103473.16
2019-05-12T12:45:30.298Z,103476.12
2019-05-12T12:48:03.857Z,103482.88
2019-05-12T12:50:37.315Z,103476.11
2019-05-12T12:53:10.858Z,103481.57
2019-05-12T12:55:45.210Z,103494.08
2019-05-12T12:58:21.129Z,103492.80
2019-05-12T13:00:57.047Z,103500.28
2019-05-12T13:03:30.194Z,103496.80
2019-05-12T13:06:04.672Z,103495.37
2019-05-12T13:08:38.281Z,103498.23
2019-05-12T13:11:11.582Z,103504.00
2019-05-12T13:13:46.083Z,103493.95
2019-05-12T13:16:19.380Z,103499.66
2019-05-12T13:18:53.828Z,103509.28
2019-05-12T13:21:27.354Z,103511.97
2019-05-12T13:24:00.696Z,103511.33
2019-05-12T13:26:34.022Z,103505.91
2019-05-12T13:29:07.373Z,103503.69
2019-05-12T13:31:41.123Z,103508.70
2019-05-12T13:34:15.703Z,103511.84
2019-05-12T13:36:49.016Z,103524.77
2019-05-12T13:39:24.215Z,103533.34
2019-05-12T13:42:00.182Z,103527.12
2019-05-12T13:44:38.707Z,103529.95
2019-05-12T13:47:07.909Z,103527.21
2019-05-12T13:49:45.370Z,103525.50
2019-05-12T13:52:20.375Z,103531.16
2019-05-12T13:54:51.450Z,103538.80
2019-05-12T13:57:24.771Z,103540.23
2019-05-12T14:00:08.527Z,103543.41
2019-05-12T14:02:34.742Z,103541.45
2019-05-12T14:05:11.446Z,103557.42
2019-05-12T14:07:43.824Z,103545.98
2019-05-12T14:10:17.259Z,103547.18
2019-05-12T14:12:50.579Z,103551.83
2019-05-12T14:15:24.846Z,103563.61
2019-05-12T14:17:58.648Z,103560.61
2019-05-12T14:20:34.456Z,103562.16
2019-05-12T14:23:07.032Z,103552.44
2019-05-12T14:25:40.389Z,103561.94
2019-05-12T14:28:16.742Z,103548.80
2019-05-12T14:30:53.833Z,103556.38
2019-05-12T14:33:29.850Z,103549.38
2019-05-12T14:36:00.519Z,103552.67
2019-05-12T14:38:33.917Z,103553.38
2019-05-12T14:41:10.362Z,103559.97
2019-05-12T14:43:47.058Z,103554.70
2019-05-12T14:46:17.311Z,103555.77
2019-05-12T14:48:50.755Z,103564.53
2019-05-12T14:51:25.114Z,103563.94
2019-05-12T14:53:58.470Z,103559.88
2019-05-12T14:56:33.766Z,103562.37
2019-05-12T14:59:08.418Z,103567.92
2019-05-12T15:01:56.621Z,103574.05
2019-05-12T15:04:19.250Z,103570.12
2019-05-12T15:06:53.362Z,103568.17
2019-05-12T15:09:26.799Z,103573.11
2019-05-12T15:12:00.126Z,103558.97
2019-05-12T15:14:37.814Z,103564.95
2019-05-12T15:17:13.885Z,103577.91
2019-05-12T15:19:44.572Z,103577.81
2019-05-12T15:22:17.913Z,103573.60
2019-05-12T15:24:55.170Z,103588.47
2019-05-12T15:27:41.283Z,103571.63
2019-05-12T15:30:04.026Z,103582.26
2019-05-12T15:32:36.629Z,103581.73
2019-05-12T15:35:09.934Z,103582.92
2019-05-12T15:37:43.821Z,103601.11
2019-05-12T15:40:17.148Z,103594.97
2019-05-12T15:42:54.940Z,103598.05
2019-05-12T15:45:25.509Z,103592.39
2019-05-12T15:47:58.887Z,103589.41
2019-05-12T15:50:34.233Z,103592.85
2019-05-12T15:53:07.303Z,103598.75
2019-05-12T15:55:43.463Z,103597.88
2019-05-12T15:58:17.023Z,103593.78
2019-05-12T16:00:50.411Z,103601.44
2019-05-12T16:03:26.323Z,103603.27
2019-05-12T16:06:01.261Z,103604.83
2019-05-12T16:08:33.956Z,103592.68
2019-05-12T16:11:07.300Z,103605.38
2019-05-12T16:13:44.934Z,103617.64
2019-05-12T16:16:15.762Z,103605.71
2019-05-12T16:18:50.746Z,103614.83
2019-05-12T16:21:24.193Z,103610.00
2019-05-12T16:24:04.972Z,103614.09
2019-05-12T16:26:33.473Z,103614.97
2019-05-12T16:29:07.396Z,103617.72
2019-05-12T16:31:47.877Z,103622.09
2019-05-12T16:34:15.783Z,103628.56
2019-05-12T16:36:52.072Z,103626.58
2019-05-12T16:39:24.154Z,103632.60
2019-05-12T16:42:00.075Z,103644.77
2019-05-12T16:44:34.813Z,103636.87
2019-05-12T16:47:07.820Z,103633.97
2019-05-12T16:49:41.440Z,103638.71
2019-05-12T16:52:14.831Z,103649.64
2019-05-12T16:54:48.180Z,103645.41
2019-05-12T16:57:21.545Z,103644.90
2019-05-12T17:00:02.229Z,103651.00
2019-05-12T17:02:39.433Z,103650.23
2019-05-12T17:05:14.594Z,103657.85
2019-05-12T17:07:40.870Z,103658.76
2019-05-12T17:10:16.394Z,103661.09
2019-05-12T17:12:49.218Z,103665.89
2019-05-12T17:15:23.547Z,103667.09
2019-05-12T17:18:01.502Z,103667.81
2019-05-12T17:20:33.619Z,103669.20
2019-05-12T17:23:07.038Z,103666.63
2019-05-12T17:25:40.352Z,103670.80
2019-05-12T17:28:13.695Z,103677.13
2019-05-12T17:30:47.007Z,103677.55
2019-05-12T17:33:22.696Z,103673.48
2019-05-12T17:35:55.375Z,103689.31
2019-05-12T17:38:30.226Z,103691.48
2019-05-12T17:41:03.933Z,103688.75
2019-05-12T17:43:45.027Z,103688.42
2019-05-12T17:46:17.805Z,103685.89
2019-05-12T17:48:47.376Z,103697.02
2019-05-12T17:51:26.764Z,103694.75
2019-05-12T17:53:57.993Z,103698.92
2019-05-12T17:56:34.222Z,103703.67
2019-05-12T17:59:06.259Z,103703.84
2019-05-12T18:01:39.551Z,103708.41
2019-05-12T18:04:13.964Z,103714.83
2019-05-12T18:06:47.512Z,103719.02
2019-05-12T18:09:20.839Z,103715.34
2019-05-12T18:11:56.131Z,103714.80
2019-05-12T18:14:29.165Z,103712.88
2019-05-12T18:17:08.515Z,103725.48
2019-05-12T18:19:37.508Z,103724.02
2019-05-12T18:22:10.839Z,103718.31
2019-05-12T18:24:49.426Z,103729.64
2019-05-12T18:27:20.275Z,103723.50
2019-05-12T18:29:53.830Z,103722.79
2019-05-12T18:32:27.189Z,103728.06
2019-05-12T18:35:00.353Z,103732.38
2019-05-12T18:37:34.417Z,103734.92
2019-05-12T18:40:07.797Z,103743.42
2019-05-12T18:42:41.124Z,103739.91
2019-05-12T18:45:17.847Z,103741.94
2019-05-12T18:47:49.790Z,103740.12
2019-05-12T18:50:29.213Z,103741.33
2019-05-12T18:52:58.767Z,103745.11
2019-05-12T18:55:35.780Z,103747.66
2019-05-12T18:58:09.512Z,103746.81
2019-05-12T19:00:43.636Z,103752.84
2019-05-12T19:03:20.441Z,103748.97
2019-05-12T19:05:54.144Z,103753.20
2019-05-12T19:08:27.187Z,103757.05
2019-05-12T19:11:14.953Z,103764.34
2019-05-12T19:13:35.585Z,103761.81
2019-05-12T19:16:11.265Z,103769.27
2019-05-12T19:18:44.120Z,103767.05
2019-05-12T19:21:20.228Z,103770.25
2019-05-12T19:23:54.832Z,103771.22
2019-05-12T19:26:28.194Z,103772.69
2019-05-12T19:29:03.816Z,103775.83
2019-05-12T19:31:36.860Z,103780.56
2019-05-12T19:34:19.857Z,103774.16
2019-05-12T19:36:49.362Z,103769.66
2019-05-12T19:39:25.188Z,103779.18
2019-05-12T19:41:56.901Z,103780.91
2019-05-12T19:44:30.819Z,103789.48
2019-05-12T19:47:04.316Z,103786.73
2019-05-12T19:49:48.001Z,103791.92
2019-05-12T19:52:14.253Z,103789.70
2019-05-12T19:54:47.637Z,103791.25
2019-05-12T19:57:25.513Z,103801.73
2019-05-12T19:59:56.362Z,103795.09
2019-05-12T20:02:29.699Z,103799.89
2019-05-12T20:05:04.895Z,103798.20
2019-05-12T20:07:38.307Z,103803.88
2019-05-12T20:10:16.305Z,103803.81
2019-05-12T20:12:48.698Z,103805.89
2019-05-12T20:15:24.150Z,103804.55
2019-05-12T20:17:57.676Z,103795.73
2019-05-12T20:20:36.761Z,103810.89
2019-05-12T20:23:06.105Z,103807.47
2019-05-12T20:25:39.417Z,103803.95
2019-05-12T20:28:14.446Z,103796.34
2019-05-12T20:30:54.376Z,103798.91
2019-05-12T20:33:24.034Z,103805.85
2019-05-12T20:35:57.588Z,103805.38
2019-05-12T20:38:34.073Z,103808.15
2019-05-12T20:41:10.973Z,103812.17
2019-05-12T20:43:42.025Z,103809.48
2019-05-12T20:46:21.715Z,103815.20
2019-05-12T20:48:53.791Z,103812.95
2019-05-12T20:51:27.249Z,103814.11
2019-05-12T20:54:05.633Z,103819.05
2019-05-12T20:56:35.739Z,103827.44
2019-05-12T20:59:13.764Z,103827.32
2019-05-12T21:01:44.362Z,103830.13
2019-05-12T21:04:22.172Z,103830.73
2019-05-12T21:06:54.258Z,103820.00
2019-05-12T21:09:27.772Z,103827.05
2019-05-12T21:12:01.094Z,103834.53
2019-05-12T21:14:34.449Z,103830.75
2019-05-12T21:17:09.401Z,103839.76
2019-05-12T21:19:55.801Z,103833.70
2019-05-12T21:22:17.859Z,103839.17
2019-05-12T21:24:53.378Z,103838.69
2019-05-12T21:27:26.219Z,103834.44
2019-05-12T21:30:00.687Z,103837.46
2019-05-12T21:32:34.581Z,103845.48
2019-05-12T21:35:18.150Z,103842.22
2019-05-12T21:37:46.111Z,103844.78
2019-05-12T21:40:22.361Z,103845.97
2019-05-12T21:42:53.780Z,103843.59
2019-05-12T21:45:30.854Z,103844.34
2019-05-12T21:48:03.641Z,103842.12
2019-05-12T21:50:39.241Z,103842.84
2019-05-12T21:53:17.462Z,103846.67
2019-05-12T21:55:47.580Z,103844.36
2019-05-12T21:58:20.891Z,103843.10
2019-05-12T22:01:04.109Z,103846.93
2019-05-12T22:03:33.453Z,103847.77
2019-05-12T22:06:19.115Z,103846.34
2019-05-12T22:08:44.238Z,103850.75
2019-05-12T22:11:17.647Z,103846.77
2019-05-12T22:13:58.231Z,103851.01
2019-05-12T22:16:29.563Z,103856.69
2019-05-12T22:19:01.643Z,103865.34
2019-05-12T22:21:44.440Z,103857.94
2019-05-12T22:24:11.108Z,103859.67
2019-05-12T22:26:46.655Z,103862.62
2019-05-12T22:29:21.370Z,103865.14
2019-05-12T22:31:54.466Z,103866.91
2019-05-12T22:34:37.177Z,103866.34
2019-05-12T22:37:03.909Z,103866.91
2019-05-12T22:39:38.497Z,103871.48
2019-05-12T22:42:19.763Z,103876.36
2019-05-12T22:44:46.807Z,103874.67
2019-05-12T22:47:20.124Z,103876.65
2019-05-12T22:49:57.011Z,103807.88
2019-05-12T22:52:28.563Z,103880.09
2019-05-12T22:55:03.618Z,103873.16
2019-05-12T22:57:40.073Z,103881.86
2019-05-12T23:00:19.344Z,103878.84
2019-05-12T23:02:50.056Z,103876.05
2019-05-12T23:05:24.164Z,103882.02
2019-05-12T23:08:00.143Z,103885.47
2019-05-12T23:10:33.830Z,103897.66
2019-05-12T23:13:08.055Z,103891.61
2019-05-12T23:15:47.589Z,103893.75
2019-05-12T23:18:19.659Z,103900.17
2019-05-12T23:20:54.149Z,103904.13
2019-05-12T23:23:27.204Z,103906.77
2019-05-12T23:26:01.920Z,103901.42
2019-05-12T23:28:40.428Z,103903.95
2019-05-12T23:31:10.638Z,103908.83
2019-05-12T23:33:44.224Z,103903.23
2019-05-12T23:36:19.631Z,103901.47
2019-05-12T23:39:00.474Z,103904.03
2019-05-12T23:41:27.576Z,103904.49
2019-05-12T23:44:01.058Z,103903.45
2019-05-12T23:46:34.433Z,103893.53
2019-05-12T23:49:07.807Z,103896.48
2019-05-12T23:51:41.100Z,103902.15
2019-05-12T23:54:14.541Z,103909.45
2019-05-12T23:56:47.844Z,103913.41
2019-05-12T23:59:21.181Z,103907.73
